KCNW/CNW METAR and TAF weather

Enter ICAO airport designator
Station Type Date Time Source
KCNW METAR 2020/02/21 02:55 UTC NOAA

KCNW 210255Z 01009KT 10SM SKC 06/02 A3061


Station Type Date Time Source
KCNW Decoded METAR 2020/02/21 02:55 UTC NOAA

Station name not available
Feb 20, 2020 - 09:55 PM EST / 2020.02.21 0255 UTC
Wind: from the N (010 degrees) at 10 MPH (9 KT):0
Visibility: 10 mile(s):0
Sky conditions: clear
Temperature: 42 F (6 C)
Dew Point: 35 F (2 C)
Relative Humidity: 75%
Pressure (altimeter): 30.61 in. Hg (1036 hPa)
ob: KCNW 210255Z 01009KT 10SM SKC 06/02 A3061
cycle: 3

Station Type Date Time Source
KCNW TAF UTC NOAA

Error!

Example: see airport list